sensor_id;sensor_type;location;lat;lon;timestamp;P1;durP1;ratioP1;P2;durP2;ratioP2
57085;SDS011;42964;42.910;23.792;2023-03-14T00:00:13;7.65;;;4.50;;
57085;SDS011;42964;42.910;23.792;2023-03-14T00:05:13;9.15;;;5.03;;
57085;SDS011;42964;42.910;23.792;2023-03-14T00:10:13;12.13;;;7.45;;
57085;SDS011;42964;42.910;23.792;2023-03-14T00:15:12;13.85;;;7.47;;
57085;SDS011;42964;42.910;23.792;2023-03-14T00:20:11;12.32;;;7.15;;
57085;SDS011;42964;42.910;23.792;2023-03-14T00:25:11;9.70;;;5.82;;
57085;SDS011;42964;42.910;23.792;2023-03-14T00:30:11;9.98;;;6.20;;
57085;SDS011;42964;42.910;23.792;2023-03-14T00:35:10;8.35;;;5.38;;
57085;SDS011;42964;42.910;23.792;2023-03-14T00:40:09;7.85;;;4.78;;
57085;SDS011;42964;42.910;23.792;2023-03-14T00:45:08;10.68;;;4.85;;
57085;SDS011;42964;42.910;23.792;2023-03-14T00:50:08;11.50;;;4.65;;
57085;SDS011;42964;42.910;23.792;2023-03-14T00:55:08;9.00;;;4.40;;
57085;SDS011;42964;42.910;23.792;2023-03-14T01:00:07;8.68;;;4.00;;
57085;SDS011;42964;42.910;23.792;2023-03-14T01:05:10;7.35;;;4.18;;
57085;SDS011;42964;42.910;23.792;2023-03-14T01:10:09;7.28;;;4.20;;
57085;SDS011;42964;42.910;23.792;2023-03-14T01:15:09;7.65;;;5.00;;
57085;SDS011;42964;42.910;23.792;2023-03-14T01:20:09;13.07;;;7.95;;
57085;SDS011;42964;42.910;23.792;2023-03-14T01:25:11;15.60;;;9.23;;
57085;SDS011;42964;42.910;23.792;2023-03-14T01:30:12;19.77;;;10.40;;
57085;SDS011;42964;42.910;23.792;2023-03-14T01:35:11;18.23;;;11.35;;
57085;SDS011;42964;42.910;23.792;2023-03-14T01:40:11;16.63;;;9.70;;
57085;SDS011;42964;42.910;23.792;2023-03-14T01:50:48;16.33;;;10.13;;
57085;SDS011;42964;42.910;23.792;2023-03-14T01:55:48;14.52;;;9.18;;
57085;SDS011;42964;42.910;23.792;2023-03-14T02:00:48;14.77;;;9.55;;
57085;SDS011;42964;42.910;23.792;2023-03-14T02:05:47;13.05;;;8.50;;
57085;SDS011;42964;42.910;23.792;2023-03-14T02:10:48;17.10;;;9.68;;
57085;SDS011;42964;42.910;23.792;2023-03-14T02:15:48;18.90;;;12.57;;
57085;SDS011;42964;42.910;23.792;2023-03-14T02:26:15;16.23;;;10.73;;
57085;SDS011;42964;42.910;23.792;2023-03-14T02:31:21;16.45;;;9.55;;
57085;SDS011;42964;42.910;23.792;2023-03-14T02:36:21;14.93;;;9.88;;
57085;SDS011;42964;42.910;23.792;2023-03-14T02:41:21;16.25;;;10.23;;
57085;SDS011;42964;42.910;23.792;2023-03-14T02:51:20;18.63;;;10.30;;
57085;SDS011;42964;42.910;23.792;2023-03-14T02:56:20;14.25;;;8.88;;
57085;SDS011;42964;42.910;23.792;2023-03-14T03:01:19;23.10;;;13.02;;
57085;SDS011;42964;42.910;23.792;2023-03-14T03:06:18;23.58;;;16.83;;
57085;SDS011;42964;42.910;23.792;2023-03-14T03:11:17;35.00;;;21.25;;
57085;SDS011;42964;42.910;23.792;2023-03-14T03:21:15;37.10;;;19.45;;
57085;SDS011;42964;42.910;23.792;2023-03-14T03:26:14;25.65;;;15.82;;
57085;SDS011;42964;42.910;23.792;2023-03-14T03:31:13;33.85;;;18.35;;
57085;SDS011;42964;42.910;23.792;2023-03-14T03:36:12;33.05;;;18.80;;
57085;SDS011;42964;42.910;23.792;2023-03-14T03:41:11;42.17;;;21.92;;
57085;SDS011;42964;42.910;23.792;2023-03-14T03:46:10;47.83;;;24.42;;
57085;SDS011;42964;42.910;23.792;2023-03-14T03:51:15;51.15;;;24.02;;
57085;SDS011;42964;42.910;23.792;2023-03-14T03:56:15;62.92;;;31.75;;
57085;SDS011;42964;42.910;23.792;2023-03-14T04:01:14;51.05;;;29.70;;
57085;SDS011;42964;42.910;23.792;2023-03-14T04:06:13;52.00;;;30.30;;
57085;SDS011;42964;42.910;23.792;2023-03-14T04:11:12;51.80;;;30.38;;
57085;SDS011;42964;42.910;23.792;2023-03-14T04:16:13;56.75;;;30.55;;
57085;SDS011;42964;42.910;23.792;2023-03-14T04:21:16;41.55;;;24.75;;
57085;SDS011;42964;42.910;23.792;2023-03-14T04:26:15;89.45;;;41.70;;
57085;SDS011;42964;42.910;23.792;2023-03-14T04:31:16;74.88;;;37.33;;
57085;SDS011;42964;42.910;23.792;2023-03-14T04:36:17;66.90;;;35.67;;
57085;SDS011;42964;42.910;23.792;2023-03-14T04:41:16;60.33;;;33.85;;
57085;SDS011;42964;42.910;23.792;2023-03-14T04:46:15;60.47;;;31.65;;
57085;SDS011;42964;42.910;23.792;2023-03-14T04:51:14;60.30;;;32.95;;
57085;SDS011;42964;42.910;23.792;2023-03-14T04:56:13;85.28;;;48.95;;
57085;SDS011;42964;42.910;23.792;2023-03-14T05:01:12;61.35;;;38.45;;
57085;SDS011;42964;42.910;23.792;2023-03-14T05:06:11;64.10;;;35.38;;
57085;SDS011;42964;42.910;23.792;2023-03-14T05:11:10;59.85;;;36.13;;
57085;SDS011;42964;42.910;23.792;2023-03-14T05:16:11;67.30;;;39.40;;
57085;SDS011;42964;42.910;23.792;2023-03-14T05:26:08;89.15;;;51.42;;
57085;SDS011;42964;42.910;23.792;2023-03-14T05:31:08;91.10;;;52.88;;
57085;SDS011;42964;42.910;23.792;2023-03-14T05:36:07;91.05;;;52.05;;
57085;SDS011;42964;42.910;23.792;2023-03-14T05:41:07;82.43;;;45.20;;
57085;SDS011;42964;42.910;23.792;2023-03-14T05:51:04;60.97;;;37.58;;
57085;SDS011;42964;42.910;23.792;2023-03-14T06:01:03;34.00;;;22.17;;
57085;SDS011;42964;42.910;23.792;2023-03-14T06:06:04;24.48;;;15.88;;
57085;SDS011;42964;42.910;23.792;2023-03-14T06:16:02;27.65;;;16.30;;
57085;SDS011;42964;42.910;23.792;2023-03-14T06:21:01;27.50;;;16.85;;
57085;SDS011;42964;42.910;23.792;2023-03-14T06:26:00;32.95;;;19.40;;
57085;SDS011;42964;42.910;23.792;2023-03-14T06:35:59;41.13;;;23.20;;
57085;SDS011;42964;42.910;23.792;2023-03-14T06:41:02;25.85;;;16.80;;
57085;SDS011;42964;42.910;23.792;2023-03-14T06:46:05;26.33;;;15.15;;
57085;SDS011;42964;42.910;23.792;2023-03-14T06:51:04;24.10;;;14.68;;
57085;SDS011;42964;42.910;23.792;2023-03-14T06:56:05;24.60;;;15.52;;
57085;SDS011;42964;42.910;23.792;2023-03-14T07:01:04;12.98;;;8.10;;
57085;SDS011;42964;42.910;23.792;2023-03-14T07:11:02;17.05;;;9.13;;
57085;SDS011;42964;42.910;23.792;2023-03-14T07:16:01;19.33;;;11.85;;
57085;SDS011;42964;42.910;23.792;2023-03-14T07:21:00;24.83;;;10.63;;
57085;SDS011;42964;42.910;23.792;2023-03-14T07:25:59;18.63;;;11.55;;
57085;SDS011;42964;42.910;23.792;2023-03-14T07:30:58;20.42;;;12.05;;
57085;SDS011;42964;42.910;23.792;2023-03-14T07:35:57;18.10;;;9.57;;
57085;SDS011;42964;42.910;23.792;2023-03-14T07:41:00;13.45;;;8.20;;
57085;SDS011;42964;42.910;23.792;2023-03-14T07:46:00;15.63;;;6.90;;
57085;SDS011;42964;42.910;23.792;2023-03-14T07:55:58;11.32;;;6.53;;
57085;SDS011;42964;42.910;23.792;2023-03-14T08:00:58;13.15;;;6.25;;
57085;SDS011;42964;42.910;23.792;2023-03-14T08:05:57;7.20;;;4.53;;
57085;SDS011;42964;42.910;23.792;2023-03-14T08:10:56;10.00;;;5.88;;
57085;SDS011;42964;42.910;23.792;2023-03-14T08:16:00;8.15;;;3.50;;
57085;SDS011;42964;42.910;23.792;2023-03-14T08:20:59;9.25;;;4.20;;
57085;SDS011;42964;42.910;23.792;2023-03-14T08:30:57;6.80;;;3.53;;
57085;SDS011;42964;42.910;23.792;2023-03-14T08:35:57;8.90;;;4.00;;
57085;SDS011;42964;42.910;23.792;2023-03-14T08:40:57;6.28;;;3.45;;
57085;SDS011;42964;42.910;23.792;2023-03-14T08:45:58;8.23;;;3.47;;
57085;SDS011;42964;42.910;23.792;2023-03-14T08:51:11;5.00;;;3.33;;
57085;SDS011;42964;42.910;23.792;2023-03-14T08:56:12;9.63;;;3.80;;
57085;SDS011;42964;42.910;23.792;2023-03-14T09:01:11;8.38;;;3.65;;
57085;SDS011;42964;42.910;23.792;2023-03-14T09:11:09;10.65;;;3.67;;
57085;SDS011;42964;42.910;23.792;2023-03-14T09:16:08;6.20;;;3.45;;
57085;SDS011;42964;42.910;23.792;2023-03-14T09:21:07;5.75;;;3.20;;
57085;SDS011;42964;42.910;23.792;2023-03-14T09:31:09;14.43;;;3.70;;
57085;SDS011;42964;42.910;23.792;2023-03-14T09:36:09;7.75;;;3.47;;
57085;SDS011;42964;42.910;23.792;2023-03-14T09:41:27;9.70;;;3.60;;
57085;SDS011;42964;42.910;23.792;2023-03-14T09:46:30;5.68;;;3.03;;
57085;SDS011;42964;42.910;23.792;2023-03-14T09:51:31;7.80;;;2.83;;
57085;SDS011;42964;42.910;23.792;2023-03-14T09:56:32;8.68;;;3.38;;
57085;SDS011;42964;42.910;23.792;2023-03-14T10:01:32;17.73;;;3.30;;
57085;SDS011;42964;42.910;23.792;2023-03-14T10:06:32;10.90;;;3.08;;
57085;SDS011;42964;42.910;23.792;2023-03-14T10:11:31;8.35;;;3.15;;
57085;SDS011;42964;42.910;23.792;2023-03-14T10:21:30;6.28;;;3.10;;
57085;SDS011;42964;42.910;23.792;2023-03-14T10:26:31;3.20;;;2.30;;
57085;SDS011;42964;42.910;23.792;2023-03-14T10:37:18;8.75;;;3.00;;
57085;SDS011;42964;42.910;23.792;2023-03-14T10:42:22;3.88;;;2.35;;
57085;SDS011;42964;42.910;23.792;2023-03-14T10:47:28;8.90;;;2.70;;
57085;SDS011;42964;42.910;23.792;2023-03-14T10:52:28;9.50;;;2.85;;
57085;SDS011;42964;42.910;23.792;2023-03-14T10:57:28;4.13;;;2.40;;
57085;SDS011;42964;42.910;23.792;2023-03-14T11:07:38;10.68;;;2.95;;
57085;SDS011;42964;42.910;23.792;2023-03-14T11:28:39;8.10;;;2.20;;
57085;SDS011;42964;42.910;23.792;2023-03-14T11:33:57;4.68;;;2.20;;
57085;SDS011;42964;42.910;23.792;2023-03-14T11:39:10;4.32;;;2.20;;
57085;SDS011;42964;42.910;23.792;2023-03-14T11:44:34;3.58;;;2.30;;
57085;SDS011;42964;42.910;23.792;2023-03-14T11:49:53;4.07;;;2.30;;
57085;SDS011;42964;42.910;23.792;2023-03-14T11:55:13;4.93;;;2.17;;
57085;SDS011;42964;42.910;23.792;2023-03-14T12:00:20;4.05;;;2.10;;
57085;SDS011;42964;42.910;23.792;2023-03-14T12:05:40;4.32;;;2.53;;
57085;SDS011;42964;42.910;23.792;2023-03-14T12:11:01;5.97;;;2.22;;
57085;SDS011;42964;42.910;23.792;2023-03-14T12:16:05;8.40;;;2.30;;
57085;SDS011;42964;42.910;23.792;2023-03-14T12:21:34;2.17;;;1.98;;
57085;SDS011;42964;42.910;23.792;2023-03-14T12:26:55;6.50;;;2.30;;
57085;SDS011;42964;42.910;23.792;2023-03-14T12:37:28;5.55;;;1.92;;
57085;SDS011;42964;42.910;23.792;2023-03-14T12:42:43;4.80;;;2.15;;
57085;SDS011;42964;42.910;23.792;2023-03-14T12:53:20;6.15;;;2.40;;
57085;SDS011;42964;42.910;23.792;2023-03-14T12:58:40;3.35;;;2.25;;
57085;SDS011;42964;42.910;23.792;2023-03-14T13:03:47;4.00;;;2.15;;
57085;SDS011;42964;42.910;23.792;2023-03-14T13:08:52;4.55;;;2.20;;
57085;SDS011;42964;42.910;23.792;2023-03-14T13:13:58;3.05;;;2.33;;
57085;SDS011;42964;42.910;23.792;2023-03-14T13:19:01;3.70;;;2.10;;
57085;SDS011;42964;42.910;23.792;2023-03-14T13:24:24;6.35;;;2.22;;
57085;SDS011;42964;42.910;23.792;2023-03-14T13:34:26;4.15;;;2.60;;
57085;SDS011;42964;42.910;23.792;2023-03-14T13:39:27;5.85;;;2.45;;
57085;SDS011;42964;42.910;23.792;2023-03-14T13:44:31;7.25;;;2.38;;
57085;SDS011;42964;42.910;23.792;2023-03-14T13:49:33;5.05;;;2.40;;
57085;SDS011;42964;42.910;23.792;2023-03-14T13:54:35;6.03;;;2.25;;
57085;SDS011;42964;42.910;23.792;2023-03-14T13:59:37;4.57;;;2.05;;
57085;SDS011;42964;42.910;23.792;2023-03-14T14:04:36;3.47;;;2.17;;
57085;SDS011;42964;42.910;23.792;2023-03-14T14:09:37;3.85;;;2.05;;
57085;SDS011;42964;42.910;23.792;2023-03-14T14:14:43;4.22;;;1.90;;
57085;SDS011;42964;42.910;23.792;2023-03-14T14:19:43;2.70;;;1.90;;
57085;SDS011;42964;42.910;23.792;2023-03-14T14:24:44;4.38;;;2.17;;
57085;SDS011;42964;42.910;23.792;2023-03-14T14:29:44;4.18;;;1.77;;
57085;SDS011;42964;42.910;23.792;2023-03-14T14:34:59;4.45;;;2.05;;
57085;SDS011;42964;42.910;23.792;2023-03-14T14:40:10;2.42;;;1.98;;
57085;SDS011;42964;42.910;23.792;2023-03-14T14:45:18;5.90;;;2.28;;
57085;SDS011;42964;42.910;23.792;2023-03-14T14:55:58;5.38;;;3.03;;
57085;SDS011;42964;42.910;23.792;2023-03-14T15:01:10;3.20;;;2.42;;
57085;SDS011;42964;42.910;23.792;2023-03-14T15:06:13;6.18;;;2.50;;
57085;SDS011;42964;42.910;23.792;2023-03-14T15:11:18;5.22;;;2.78;;
57085;SDS011;42964;42.910;23.792;2023-03-14T15:16:22;7.05;;;2.97;;
57085;SDS011;42964;42.910;23.792;2023-03-14T15:21:26;6.53;;;3.22;;
57085;SDS011;42964;42.910;23.792;2023-03-14T15:26:27;6.50;;;3.70;;
57085;SDS011;42964;42.910;23.792;2023-03-14T15:31:26;6.75;;;3.42;;
57085;SDS011;42964;42.910;23.792;2023-03-14T15:36:29;6.68;;;3.53;;
57085;SDS011;42964;42.910;23.792;2023-03-14T15:41:30;5.50;;;3.45;;
57085;SDS011;42964;42.910;23.792;2023-03-14T15:46:29;6.78;;;4.15;;
57085;SDS011;42964;42.910;23.792;2023-03-14T15:56:26;6.27;;;4.10;;
57085;SDS011;42964;42.910;23.792;2023-03-14T16:01:29;11.60;;;4.72;;
57085;SDS011;42964;42.910;23.792;2023-03-14T16:11:27;6.80;;;4.63;;
57085;SDS011;42964;42.910;23.792;2023-03-14T16:21:25;7.95;;;5.15;;
57085;SDS011;42964;42.910;23.792;2023-03-14T16:31:22;12.50;;;5.32;;
57085;SDS011;42964;42.910;23.792;2023-03-14T16:36:23;10.60;;;5.90;;
57085;SDS011;42964;42.910;23.792;2023-03-14T16:46:21;11.27;;;5.97;;
57085;SDS011;42964;42.910;23.792;2023-03-14T16:51:20;8.57;;;4.95;;
57085;SDS011;42964;42.910;23.792;2023-03-14T16:56:20;14.23;;;5.60;;
57085;SDS011;42964;42.910;23.792;2023-03-14T17:06:20;17.90;;;6.73;;
57085;SDS011;42964;42.910;23.792;2023-03-14T17:11:23;12.10;;;5.68;;
57085;SDS011;42964;42.910;23.792;2023-03-14T17:16:22;12.35;;;6.03;;
57085;SDS011;42964;42.910;23.792;2023-03-14T17:21:21;16.25;;;7.18;;
57085;SDS011;42964;42.910;23.792;2023-03-14T17:26:21;17.00;;;6.53;;
57085;SDS011;42964;42.910;23.792;2023-03-14T17:31:20;10.55;;;7.07;;
57085;SDS011;42964;42.910;23.792;2023-03-14T17:36:21;18.45;;;7.30;;
57085;SDS011;42964;42.910;23.792;2023-03-14T17:41:24;38.53;;;7.85;;
57085;SDS011;42964;42.910;23.792;2023-03-14T17:46:23;34.85;;;7.35;;
57085;SDS011;42964;42.910;23.792;2023-03-14T17:51:22;34.58;;;7.47;;
57085;SDS011;42964;42.910;23.792;2023-03-14T18:01:21;13.60;;;5.95;;
57085;SDS011;42964;42.910;23.792;2023-03-14T18:06:20;11.10;;;5.15;;
57085;SDS011;42964;42.910;23.792;2023-03-14T18:11:20;19.30;;;6.50;;
57085;SDS011;42964;42.910;23.792;2023-03-14T18:16:20;10.10;;;5.50;;
57085;SDS011;42964;42.910;23.792;2023-03-14T18:21:19;12.63;;;5.50;;
57085;SDS011;42964;42.910;23.792;2023-03-14T18:26:19;11.20;;;6.00;;
57085;SDS011;42964;42.910;23.792;2023-03-14T18:31:19;13.02;;;5.95;;
57085;SDS011;42964;42.910;23.792;2023-03-14T18:36:20;9.82;;;5.10;;
57085;SDS011;42964;42.910;23.792;2023-03-14T18:46:20;10.55;;;5.20;;
57085;SDS011;42964;42.910;23.792;2023-03-14T18:51:19;7.47;;;4.85;;
57085;SDS011;42964;42.910;23.792;2023-03-14T18:56:18;9.85;;;5.05;;
57085;SDS011;42964;42.910;23.792;2023-03-14T19:01:17;8.93;;;4.90;;
57085;SDS011;42964;42.910;23.792;2023-03-14T19:06:16;8.93;;;4.97;;
57085;SDS011;42964;42.910;23.792;2023-03-14T19:16:15;6.13;;;4.77;;
57085;SDS011;42964;42.910;23.792;2023-03-14T19:21:13;7.57;;;4.60;;
57085;SDS011;42964;42.910;23.792;2023-03-14T19:26:30;9.20;;;4.88;;
57085;SDS011;42964;42.910;23.792;2023-03-14T19:31:31;9.38;;;4.55;;
57085;SDS011;42964;42.910;23.792;2023-03-14T19:36:31;8.73;;;4.53;;
57085;SDS011;42964;42.910;23.792;2023-03-14T19:41:32;8.20;;;4.28;;
57085;SDS011;42964;42.910;23.792;2023-03-14T19:46:31;7.13;;;4.15;;
57085;SDS011;42964;42.910;23.792;2023-03-14T19:51:33;7.05;;;4.53;;
57085;SDS011;42964;42.910;23.792;2023-03-14T19:56:33;10.38;;;4.72;;
57085;SDS011;42964;42.910;23.792;2023-03-14T20:01:32;6.70;;;4.03;;
57085;SDS011;42964;42.910;23.792;2023-03-14T20:06:32;6.28;;;3.85;;
57085;SDS011;42964;42.910;23.792;2023-03-14T20:11:32;11.27;;;4.10;;
57085;SDS011;42964;42.910;23.792;2023-03-14T20:16:32;8.95;;;4.30;;
57085;SDS011;42964;42.910;23.792;2023-03-14T20:21:34;8.48;;;4.13;;
57085;SDS011;42964;42.910;23.792;2023-03-14T20:26:33;7.97;;;3.85;;
57085;SDS011;42964;42.910;23.792;2023-03-14T20:31:33;7.35;;;3.65;;
57085;SDS011;42964;42.910;23.792;2023-03-14T20:36:35;13.55;;;3.80;;
57085;SDS011;42964;42.910;23.792;2023-03-14T20:41:35;8.98;;;3.90;;
57085;SDS011;42964;42.910;23.792;2023-03-14T20:46:39;5.57;;;3.05;;
57085;SDS011;42964;42.910;23.792;2023-03-14T20:51:38;5.47;;;3.30;;
57085;SDS011;42964;42.910;23.792;2023-03-14T20:56:37;8.05;;;3.88;;
57085;SDS011;42964;42.910;23.792;2023-03-14T21:01:36;6.75;;;3.17;;
57085;SDS011;42964;42.910;23.792;2023-03-14T21:06:35;4.30;;;3.00;;
57085;SDS011;42964;42.910;23.792;2023-03-14T21:11:34;7.35;;;3.78;;
57085;SDS011;42964;42.910;23.792;2023-03-14T21:16:38;6.68;;;3.58;;
57085;SDS011;42964;42.910;23.792;2023-03-14T21:21:40;6.80;;;3.20;;
57085;SDS011;42964;42.910;23.792;2023-03-14T21:26:39;5.28;;;3.35;;
57085;SDS011;42964;42.910;23.792;2023-03-14T21:31:39;9.38;;;3.53;;
57085;SDS011;42964;42.910;23.792;2023-03-14T21:36:38;6.88;;;3.55;;
57085;SDS011;42964;42.910;23.792;2023-03-14T21:41:37;6.68;;;3.38;;
57085;SDS011;42964;42.910;23.792;2023-03-14T21:46:36;6.95;;;3.80;;
57085;SDS011;42964;42.910;23.792;2023-03-14T21:51:34;5.80;;;3.63;;
57085;SDS011;42964;42.910;23.792;2023-03-14T21:56:33;6.00;;;3.47;;
57085;SDS011;42964;42.910;23.792;2023-03-14T22:01:33;8.30;;;5.00;;
57085;SDS011;42964;42.910;23.792;2023-03-14T22:06:32;8.90;;;4.57;;
57085;SDS011;42964;42.910;23.792;2023-03-14T22:11:32;6.38;;;3.88;;
57085;SDS011;42964;42.910;23.792;2023-03-14T22:16:31;4.47;;;3.13;;
57085;SDS011;42964;42.910;23.792;2023-03-14T22:21:30;6.10;;;3.22;;
57085;SDS011;42964;42.910;23.792;2023-03-14T22:26:29;5.45;;;2.97;;
57085;SDS011;42964;42.910;23.792;2023-03-14T22:31:28;4.90;;;2.90;;
57085;SDS011;42964;42.910;23.792;2023-03-14T22:36:27;7.75;;;3.83;;
57085;SDS011;42964;42.910;23.792;2023-03-14T22:41:26;5.80;;;3.05;;
57085;SDS011;42964;42.910;23.792;2023-03-14T22:46:25;5.45;;;3.10;;
57085;SDS011;42964;42.910;23.792;2023-03-14T22:51:23;6.50;;;3.20;;
57085;SDS011;42964;42.910;23.792;2023-03-14T22:56:23;7.55;;;3.25;;
57085;SDS011;42964;42.910;23.792;2023-03-14T23:01:21;5.07;;;2.75;;
57085;SDS011;42964;42.910;23.792;2023-03-14T23:11:19;7.15;;;2.60;;
57085;SDS011;42964;42.910;23.792;2023-03-14T23:16:18;6.68;;;3.00;;
57085;SDS011;42964;42.910;23.792;2023-03-14T23:21:21;6.38;;;2.72;;
